OKBK

Kuwait International

Airport
ICAO code
OKBK
Summary
ICAO Region
APAC
ICAO Territory
Location

Kuwait,

Coordinates
29° 13' 46" N , 47° 58' 48" E
KCC
Airport LOS
Parallel Runway Operation
Airport WX
Fog
Metar
Observation
OKBK 300800Z 34009KT CAVOK 35/10 Q1009 NOSIG
Station
Kuwait Internationalairport
Date/Time
2022-09-30 08:00:00
Wind direction
340°
Wind speed
09 kts
Lowest cloud amount
clouds and visibility OK
Temperature
35°C
Dew point
10°C
Humidity
21%
QNH
1009 hPa
Weather condition
n/a

Description

International airport serving...

Climatology

Hot Desert Climate (Köppen climate classification BWh) - Hot desert climates are typically found in the subtropics where there is unbroken sunshine for the whole year due to the stable descending air and high pressure, little or no precipitation. Maximum temperatures of 40°C to 45°C are not uncommon, particularly during the warmer months of the year.

Runways

Designator Length Width Surface Rops
15R/33L 3400 45 CON Yes/Yes
15L/33R 3500 45 ASP Yes/Yes

Airport map

Aerial View

SKYbrary Partners:

Safety knowledge contributed by: